createdAt,value
2023-04-13T00:01:09.412Z,3.47
2023-04-13T00:03:39.719Z,3.45
2023-04-13T00:06:11.353Z,3.28
2023-04-13T00:08:42.986Z,2.72
2023-04-13T00:11:11.614Z,2.65
2023-04-13T00:13:43.156Z,2.45
2023-04-13T00:16:13.911Z,2.70
2023-04-13T00:18:42.521Z,2.15
2023-04-13T00:21:10.933Z,3.03
2023-04-13T00:23:39.655Z,2.25
2023-04-13T00:26:08.159Z,4.57
2023-04-13T00:28:36.482Z,3.50
2023-04-13T00:31:05.489Z,3.47
2023-04-13T00:33:35.550Z,3.10
2023-04-13T00:36:04.026Z,2.97
2023-04-13T00:38:32.351Z,2.88
2023-04-13T00:43:30.669Z,2.50
2023-04-13T00:46:00.089Z,2.13
2023-04-13T00:48:28.735Z,2.83
2023-04-13T00:50:59.234Z,3.45
2023-04-13T00:53:27.847Z,2.58
2023-04-13T00:55:57.244Z,4.65
2023-04-13T00:58:26.226Z,2.35
2023-04-13T01:00:54.669Z,2.17
2023-04-13T01:03:23.176Z,3.90
2023-04-13T01:06:08.973Z,3.00
2023-04-13T01:08:41.889Z,2.47
2023-04-13T01:11:18.810Z,2.22
2023-04-13T01:13:53.766Z,2.75
2023-04-13T01:16:24.979Z,3.55
2023-04-13T01:18:55.164Z,1.90
2023-04-13T01:21:30.445Z,2.80
2023-04-13T01:24:18.289Z,2.22
2023-04-13T01:26:57.358Z,2.17
2023-04-13T01:29:28.934Z,2.20
2023-04-13T01:31:58.692Z,1.70
2023-04-13T01:34:27.533Z,1.35
2023-04-13T01:36:56.993Z,1.45
2023-04-13T01:39:27.017Z,1.88
2023-04-13T01:42:03.889Z,1.95
2023-04-13T01:44:36.182Z,2.70
2023-04-13T01:47:16.079Z,1.70
2023-04-13T01:50:19.594Z,1.70
2023-04-13T01:53:08.240Z,1.50
2023-04-13T01:55:42.175Z,1.17
2023-04-13T01:58:13.645Z,2.17
2023-04-13T02:00:45.046Z,1.38
2023-04-13T02:03:16.593Z,1.55
2023-04-13T02:05:45.241Z,1.85
2023-04-13T02:08:14.066Z,1.77
2023-04-13T02:10:47.059Z,1.80
2023-04-13T02:13:15.483Z,1.15
2023-04-13T02:15:45.822Z,1.88
2023-04-13T02:18:14.615Z,1.48
2023-04-13T02:20:46.442Z,0.82
2023-04-13T02:23:16.016Z,1.75
2023-04-13T02:25:47.956Z,1.67
2023-04-13T02:28:17.971Z,1.15
2023-04-13T02:30:49.185Z,1.92
2023-04-13T02:33:19.285Z,1.45
2023-04-13T02:35:48.945Z,1.00
2023-04-13T02:38:18.799Z,0.80
2023-04-13T02:40:55.774Z,1.13
2023-04-13T02:43:24.315Z,1.13
2023-04-13T02:45:54.641Z,1.13
2023-04-13T02:48:25.780Z,1.17
2023-04-13T02:50:56.399Z,1.30
2023-04-13T02:53:29.603Z,1.52
2023-04-13T02:56:02.749Z,1.25
2023-04-13T02:58:32.593Z,2.58
2023-04-13T03:01:06.697Z,3.50
2023-04-13T03:03:36.748Z,2.38
2023-04-13T03:06:05.544Z,1.23
2023-04-13T03:08:47.992Z,2.20
2023-04-13T03:11:26.303Z,0.75
2023-04-13T03:14:21.559Z,1.33
2023-04-13T03:16:56.639Z,0.80
2023-04-13T03:19:29.071Z,1.17
2023-04-13T03:21:57.496Z,1.50
2023-04-13T03:24:29.007Z,1.00
2023-04-13T03:27:02.636Z,1.10
2023-04-13T03:29:37.233Z,1.17
2023-04-13T03:32:08.540Z,1.30
2023-04-13T03:34:44.375Z,1.42
2023-04-13T03:37:14.751Z,0.75
2023-04-13T03:39:43.341Z,1.15
2023-04-13T03:42:16.993Z,1.60
2023-04-13T03:44:53.233Z,0.75
2023-04-13T03:47:23.324Z,1.13
2023-04-13T03:49:52.398Z,0.75
2023-04-13T03:52:21.456Z,0.93
2023-04-13T03:54:56.728Z,1.67
2023-04-13T03:57:27.505Z,1.65
2023-04-13T03:59:56.979Z,1.10
2023-04-13T04:02:52.404Z,1.10
2023-04-13T04:05:28.338Z,1.08
2023-04-13T04:08:02.574Z,0.80
2023-04-13T04:10:31.201Z,1.05
2023-04-13T04:13:00.815Z,1.63
2023-04-13T04:15:31.260Z,1.88
2023-04-13T04:18:05.816Z,1.13
2023-04-13T04:20:35.164Z,1.60
2023-04-13T04:23:05.222Z,1.00
2023-04-13T04:25:42.887Z,1.45
2023-04-13T04:28:16.199Z,1.23
2023-04-13T04:30:45.885Z,0.80
2023-04-13T04:33:22.613Z,1.45
2023-04-13T04:35:52.020Z,1.20
2023-04-13T04:38:24.816Z,1.30
2023-04-13T04:40:57.850Z,1.13
2023-04-13T04:43:29.760Z,0.77
2023-04-13T04:45:58.910Z,0.80
2023-04-13T04:48:32.255Z,0.95
2023-04-13T04:51:00.782Z,1.40
2023-04-13T04:53:34.364Z,0.85
2023-04-13T04:56:07.277Z,1.20
2023-04-13T04:58:46.422Z,2.00
2023-04-13T05:01:15.671Z,1.05
2023-04-13T05:03:46.198Z,1.20
2023-04-13T05:06:32.725Z,1.00
2023-04-13T05:09:03.742Z,1.00
2023-04-13T05:11:34.009Z,0.98
2023-04-13T05:14:04.832Z,1.10
2023-04-13T05:16:34.436Z,0.73
2023-04-13T05:19:12.685Z,1.30
2023-04-13T05:21:55.523Z,1.27
2023-04-13T05:24:24.902Z,0.82
2023-04-13T05:26:54.493Z,1.00
2023-04-13T05:29:24.247Z,1.30
2023-04-13T05:34:23.053Z,1.10
2023-04-13T05:37:05.423Z,1.52
2023-04-13T05:39:33.959Z,1.73
2023-04-13T05:42:02.606Z,1.13
2023-04-13T05:44:34.503Z,1.00
2023-04-13T05:47:03.589Z,1.23
2023-04-13T05:49:35.912Z,1.00
2023-04-13T05:52:06.801Z,1.88
2023-04-13T05:54:44.080Z,0.90
2023-04-13T05:57:12.445Z,0.90
2023-04-13T05:59:45.552Z,0.85
2023-04-13T06:02:16.236Z,1.00
2023-04-13T06:04:46.632Z,1.05
2023-04-13T06:07:16.506Z,1.30
2023-04-13T06:09:44.834Z,0.90
2023-04-13T06:12:13.737Z,1.00
2023-04-13T06:14:43.047Z,0.68
2023-04-13T06:17:11.500Z,1.50
2023-04-13T06:19:39.935Z,1.02
2023-04-13T06:22:09.661Z,1.20
2023-04-13T06:24:40.666Z,0.77
2023-04-13T06:27:11.435Z,0.55
2023-04-13T06:29:41.724Z,1.48
2023-04-13T06:32:12.295Z,0.63
2023-04-13T06:34:41.234Z,0.55
2023-04-13T06:37:11.792Z,1.02
2023-04-13T06:39:47.317Z,0.68
2023-04-13T06:42:16.792Z,1.33
2023-04-13T06:44:59.745Z,0.60
2023-04-13T06:47:33.640Z,0.70
2023-04-13T06:50:06.612Z,0.75
2023-04-13T06:52:39.184Z,0.80
2023-04-13T06:55:08.117Z,0.65
2023-04-13T06:57:40.078Z,1.67
2023-04-13T07:00:26.072Z,1.05
2023-04-13T07:02:59.286Z,0.60
2023-04-13T07:05:27.960Z,0.82
2023-04-13T07:08:03.833Z,0.93
2023-04-13T07:10:32.741Z,1.00
2023-04-13T07:13:05.347Z,0.73
2023-04-13T07:15:34.664Z,0.80
2023-04-13T07:18:03.225Z,0.70
2023-04-13T07:23:00.096Z,0.60
2023-04-13T07:27:58.870Z,0.88
2023-04-13T07:30:27.246Z,1.23
2023-04-13T07:32:57.457Z,0.65
2023-04-13T07:35:26.209Z,0.77
2023-04-13T07:40:23.674Z,1.20
2023-04-13T07:42:57.586Z,0.75
2023-04-13T07:45:27.583Z,0.95
2023-04-13T07:50:24.125Z,0.77
2023-04-13T07:52:53.274Z,0.68
2023-04-13T07:55:24.594Z,0.70
2023-04-13T07:57:54.251Z,1.60
2023-04-13T08:00:24.911Z,0.80
2023-04-13T08:02:58.350Z,1.30
2023-04-13T08:05:28.794Z,0.55
2023-04-13T08:07:58.465Z,0.88
2023-04-13T08:12:56.621Z,1.45
2023-04-13T08:15:27.835Z,1.13
2023-04-13T08:17:56.782Z,1.10
2023-04-13T08:20:25.734Z,0.90
2023-04-13T08:22:56.439Z,1.30
2023-04-13T08:25:25.181Z,1.75
2023-04-13T08:27:53.967Z,0.73
2023-04-13T08:30:22.666Z,1.10
2023-04-13T08:32:58.424Z,1.10
2023-04-13T08:35:26.977Z,1.02
2023-04-13T08:40:25.568Z,0.55
2023-04-13T08:42:57.213Z,1.42
2023-04-13T08:45:28.275Z,1.20
2023-04-13T08:47:59.674Z,1.10
2023-04-13T08:50:28.141Z,1.27
2023-04-13T08:52:57.781Z,1.33
2023-04-13T08:55:27.675Z,0.93
2023-04-13T08:58:01.844Z,1.02
2023-04-13T09:00:31.282Z,0.98
2023-04-13T09:03:11.123Z,0.70
2023-04-13T09:05:45.910Z,1.00
2023-04-13T09:08:17.130Z,2.03
2023-04-13T09:10:49.245Z,1.15
2023-04-13T09:13:18.028Z,1.83
2023-04-13T09:15:50.753Z,1.08
2023-04-13T09:18:29.475Z,1.00
2023-04-13T09:21:06.826Z,1.08
2023-04-13T09:23:35.231Z,1.00
2023-04-13T09:26:08.103Z,0.90
2023-04-13T09:28:47.494Z,1.50
2023-04-13T09:31:16.442Z,2.17
2023-04-13T09:33:47.654Z,2.88
2023-04-13T09:36:17.516Z,1.08
2023-04-13T09:38:46.778Z,1.10
2023-04-13T09:41:15.038Z,1.20
2023-04-13T09:43:43.312Z,1.15
2023-04-13T09:46:15.309Z,1.15
2023-04-13T09:48:43.746Z,0.88
2023-04-13T09:53:43.791Z,1.35
2023-04-13T09:56:12.545Z,0.90
2023-04-13T09:58:44.886Z,1.38
2023-04-13T10:01:15.343Z,0.60
2023-04-13T10:03:44.618Z,1.15
2023-04-13T10:06:14.618Z,1.05
2023-04-13T10:08:43.187Z,0.90
2023-04-13T10:11:14.650Z,0.98
2023-04-13T10:13:49.813Z,1.75
2023-04-13T10:16:42.125Z,0.93
2023-04-13T10:19:14.010Z,1.50
2023-04-13T10:21:47.530Z,0.90
2023-04-13T10:24:17.864Z,0.68
2023-04-13T10:26:46.405Z,0.80
2023-04-13T10:29:16.998Z,1.00
2023-04-13T10:31:47.859Z,0.90
2023-04-13T10:34:26.539Z,0.98
2023-04-13T10:36:58.711Z,1.20
2023-04-13T10:39:28.861Z,0.93
2023-04-13T10:42:02.148Z,1.02
2023-04-13T10:44:41.911Z,1.10
2023-04-13T10:47:11.358Z,0.88
2023-04-13T10:49:41.062Z,0.82
2023-04-13T10:52:12.476Z,0.80
2023-04-13T10:54:42.659Z,1.33
2023-04-13T10:57:12.330Z,0.80
2023-04-13T10:59:56.336Z,1.05
2023-04-13T11:02:28.027Z,0.90
2023-04-13T11:04:56.899Z,1.42
2023-04-13T11:07:27.260Z,0.98
2023-04-13T11:12:30.382Z,0.80
2023-04-13T11:14:58.682Z,0.70
2023-04-13T11:17:27.476Z,1.23
2023-04-13T11:19:57.403Z,0.77
2023-04-13T11:22:29.075Z,0.75
2023-04-13T11:25:09.055Z,0.95
2023-04-13T11:27:38.188Z,1.30
2023-04-13T11:30:09.819Z,1.25
2023-04-13T11:32:42.866Z,1.35
2023-04-13T11:35:14.680Z,1.10
2023-04-13T11:37:48.792Z,1.08
2023-04-13T11:40:21.519Z,1.73
2023-04-13T11:42:51.720Z,0.80
2023-04-13T11:45:21.851Z,0.85
2023-04-13T11:47:52.014Z,1.15
2023-04-13T11:50:21.649Z,1.40
2023-04-13T11:52:56.910Z,1.08
2023-04-13T11:55:27.079Z,0.70
2023-04-13T11:57:56.875Z,0.90
2023-04-13T12:00:27.147Z,0.93
2023-04-13T12:05:29.470Z,0.70
2023-04-13T12:08:00.867Z,1.40
2023-04-13T12:10:39.362Z,0.82
2023-04-13T12:18:26.194Z,0.93
2023-04-13T12:20:57.085Z,0.80
2023-04-13T12:25:58.604Z,0.70
2023-04-13T12:28:34.146Z,1.15
2023-04-13T12:31:08.251Z,0.98
2023-04-13T12:33:37.058Z,0.63
2023-04-13T12:36:06.806Z,0.93
2023-04-13T12:38:36.944Z,0.80
2023-04-13T12:41:10.219Z,0.60
2023-04-13T12:43:38.578Z,1.13
2023-04-13T12:46:07.243Z,0.95
2023-04-13T12:48:36.473Z,1.73
2023-04-13T12:51:05.055Z,0.80
2023-04-13T12:53:33.588Z,0.55
2023-04-13T12:58:31.908Z,0.63
2023-04-13T13:01:00.654Z,0.60
2023-04-13T13:03:29.022Z,0.77
2023-04-13T13:05:57.537Z,1.20
2023-04-13T13:10:54.695Z,0.63
2023-04-13T13:13:24.657Z,0.70
2023-04-13T13:15:53.081Z,0.82
2023-04-13T13:18:21.471Z,0.50
2023-04-13T13:23:22.066Z,0.50
2023-04-13T13:28:41.077Z,0.60
2023-04-13T13:31:09.581Z,0.40
2023-04-13T13:38:36.337Z,0.60
2023-04-13T13:41:05.288Z,1.52
2023-04-13T13:43:34.066Z,0.70
2023-04-13T13:46:05.573Z,0.82
2023-04-13T13:48:35.668Z,1.02
2023-04-13T13:51:23.054Z,0.82
2023-04-13T13:53:51.766Z,1.40
2023-04-13T13:58:48.364Z,0.85
2023-04-13T14:01:18.512Z,1.08
2023-04-13T14:03:47.038Z,0.85
2023-04-13T14:08:44.165Z,0.82
2023-04-13T14:11:12.703Z,0.80
2023-04-13T14:13:41.229Z,0.52
2023-04-13T14:21:07.813Z,0.60
2023-04-13T14:26:06.396Z,0.90
2023-04-13T14:28:36.755Z,0.68
2023-04-13T14:31:05.674Z,1.05
2023-04-13T14:33:34.332Z,0.70
2023-04-13T14:36:04.390Z,0.70
2023-04-13T14:38:33.626Z,0.68
2023-04-13T14:41:01.908Z,1.00
2023-04-13T14:43:30.288Z,1.40
2023-04-13T14:45:59.125Z,1.20
2023-04-13T14:48:27.752Z,0.90
2023-04-13T14:50:56.611Z,0.80
2023-04-13T14:53:26.425Z,0.90
2023-04-13T14:55:54.706Z,0.80
2023-04-13T14:58:23.063Z,0.88
2023-04-13T15:00:51.311Z,1.30
2023-04-13T15:03:20.086Z,1.73
2023-04-13T15:05:49.870Z,0.80
2023-04-13T15:08:19.783Z,0.85
2023-04-13T15:10:49.889Z,0.77
2023-04-13T15:13:18.196Z,0.82
2023-04-13T15:15:48.187Z,0.80
2023-04-13T15:18:16.722Z,2.10
2023-04-13T15:23:13.359Z,0.90
2023-04-13T15:25:42.257Z,1.50
2023-04-13T15:28:12.053Z,0.77
2023-04-13T15:30:42.614Z,1.50
2023-04-13T15:33:11.084Z,0.98
2023-04-13T15:35:39.528Z,0.95
2023-04-13T15:38:09.396Z,0.88
2023-04-13T15:40:38.594Z,0.47
2023-04-13T15:43:07.325Z,1.05
2023-04-13T15:45:36.993Z,1.23
2023-04-13T15:48:07.252Z,0.93
2023-04-13T15:50:35.805Z,1.52
2023-04-13T15:53:04.112Z,1.58
2023-04-13T15:55:32.345Z,1.00
2023-04-13T15:58:03.654Z,1.08
2023-04-13T16:00:32.152Z,0.52
2023-04-13T16:03:01.978Z,1.13
2023-04-13T16:05:31.753Z,0.70
2023-04-13T16:08:00.196Z,1.10
2023-04-13T16:10:28.549Z,2.83
2023-04-13T16:12:56.932Z,0.82
2023-04-13T16:15:26.317Z,0.50
2023-04-13T16:17:57.069Z,1.30
2023-04-13T16:20:28.610Z,0.75
2023-04-13T16:22:59.468Z,0.70
2023-04-13T16:25:28.067Z,0.60
2023-04-13T16:32:52.965Z,1.25
2023-04-13T16:35:21.542Z,1.30
2023-04-13T16:40:19.630Z,2.05
2023-04-13T16:45:16.305Z,2.10
2023-04-13T16:47:45.284Z,11.95
2023-04-13T16:50:13.664Z,1.83
2023-04-13T16:52:42.345Z,5.40
2023-04-13T16:55:15.167Z,1.05
2023-04-13T16:57:44.098Z,2.60
2023-04-13T17:00:15.081Z,2.00
2023-04-13T17:02:44.313Z,1.27
2023-04-13T17:05:13.872Z,2.10
2023-04-13T17:07:44.263Z,1.00
2023-04-13T17:10:15.163Z,2.35
2023-04-13T17:12:43.450Z,0.70
2023-04-13T17:15:12.242Z,1.50
2023-04-13T17:17:41.019Z,1.02
2023-04-13T17:20:10.487Z,1.10
2023-04-13T17:22:39.440Z,1.15
2023-04-13T17:25:08.748Z,1.65
2023-04-13T17:27:38.709Z,1.75
2023-04-13T17:30:09.013Z,1.85
2023-04-13T17:32:37.347Z,1.65
2023-04-13T17:35:06.513Z,1.02
2023-04-13T17:37:35.157Z,1.40
2023-04-13T17:42:32.740Z,1.00
2023-04-13T17:45:03.207Z,1.17
2023-04-13T17:47:31.853Z,2.15
2023-04-13T17:54:56.663Z,4.28
2023-04-13T17:57:25.011Z,12.20
2023-04-13T17:59:53.489Z,6.95
2023-04-13T18:02:23.357Z,7.40
2023-04-13T18:04:51.934Z,9.77
2023-04-13T18:09:50.282Z,2.38
2023-04-13T18:12:18.723Z,1.92
2023-04-13T18:17:16.476Z,4.07
2023-04-13T18:19:47.063Z,4.07
2023-04-13T18:22:15.424Z,3.55
2023-04-13T18:24:43.763Z,2.40
2023-04-13T18:27:12.879Z,3.25
2023-04-13T18:29:41.309Z,2.95
2023-04-13T18:34:40.320Z,2.63
2023-04-13T18:37:10.984Z,1.95
2023-04-13T18:39:39.627Z,3.65
2023-04-13T18:42:08.805Z,3.55
2023-04-13T18:44:37.087Z,4.53
2023-04-13T18:47:05.704Z,8.75
2023-04-13T18:49:34.060Z,4.30
2023-04-13T18:52:02.646Z,6.00
2023-04-13T18:57:01.556Z,4.45
2023-04-13T18:59:35.370Z,2.38
2023-04-13T19:02:09.963Z,5.28
2023-04-13T19:04:45.353Z,3.80
2023-04-13T19:07:16.062Z,8.55
2023-04-13T19:09:52.470Z,4.80
2023-04-13T19:12:27.355Z,3.20
2023-04-13T19:15:00.962Z,4.85
2023-04-13T19:17:35.934Z,9.23
2023-04-13T19:20:10.936Z,7.13
2023-04-13T19:22:44.363Z,5.70
2023-04-13T19:25:17.694Z,5.18
2023-04-13T19:27:52.730Z,3.53
2023-04-13T19:30:27.434Z,2.25
2023-04-13T19:32:57.207Z,2.42
2023-04-13T19:35:26.439Z,2.65
2023-04-13T19:37:55.248Z,1.40
2023-04-13T19:40:27.224Z,2.35
2023-04-13T19:42:55.700Z,2.40
2023-04-13T19:47:56.658Z,4.28
2023-04-13T19:50:26.591Z,4.00
2023-04-13T19:52:59.719Z,4.40
2023-04-13T19:55:37.597Z,4.60
2023-04-13T19:58:12.631Z,3.33
2023-04-13T20:00:48.908Z,3.10
2023-04-13T20:03:24.817Z,2.72
2023-04-13T20:06:01.908Z,2.97
2023-04-13T20:08:35.676Z,3.05
2023-04-13T20:11:13.010Z,2.92
2023-04-13T20:13:47.375Z,2.60
2023-04-13T20:16:22.809Z,3.28
2023-04-13T20:18:58.249Z,3.25
2023-04-13T20:21:32.655Z,3.03
2023-04-13T20:24:03.014Z,6.47
2023-04-13T20:26:37.696Z,2.20
2023-04-13T20:29:10.225Z,7.10
2023-04-13T20:31:42.028Z,6.07
2023-04-13T20:34:15.337Z,3.63
2023-04-13T20:36:48.019Z,2.85
2023-04-13T20:39:26.579Z,2.60
2023-04-13T20:42:05.741Z,2.22
2023-04-13T20:44:46.228Z,1.40
2023-04-13T20:47:26.762Z,2.45
2023-04-13T20:50:02.024Z,1.98
2023-04-13T20:52:35.773Z,2.55
2023-04-13T20:55:12.154Z,2.40
2023-04-13T20:57:50.256Z,2.17
2023-04-13T21:00:29.563Z,2.88
2023-04-13T21:03:05.562Z,2.25
2023-04-13T21:05:38.751Z,4.55
2023-04-13T21:08:12.823Z,6.20
2023-04-13T21:10:48.264Z,2.67
2023-04-13T21:13:26.173Z,4.18
2023-04-13T21:15:59.928Z,3.42
2023-04-13T21:18:29.739Z,2.33
2023-04-13T21:20:57.979Z,2.90
2023-04-13T21:23:31.415Z,2.42
2023-04-13T21:26:06.007Z,4.05
2023-04-13T21:28:43.673Z,3.40
2023-04-13T21:31:18.257Z,2.65
2023-04-13T21:33:52.841Z,1.95
2023-04-13T21:39:02.926Z,2.58
2023-04-13T21:41:34.334Z,2.55
2023-04-13T21:44:22.284Z,2.95
2023-04-13T21:46:59.644Z,3.53
2023-04-13T21:49:32.335Z,2.60
2023-04-13T21:52:02.254Z,2.60
2023-04-13T21:54:32.305Z,3.10
2023-04-13T21:57:01.137Z,3.25
2023-04-13T21:59:37.559Z,2.00
2023-04-13T22:02:08.198Z,1.40
2023-04-13T22:04:44.279Z,1.70
2023-04-13T22:07:14.573Z,2.35
2023-04-13T22:09:44.519Z,3.17
2023-04-13T22:12:14.277Z,1.30
2023-04-13T22:14:48.760Z,1.58
2023-04-13T22:17:18.473Z,1.40
2023-04-13T22:19:47.284Z,1.33
2023-04-13T22:22:22.777Z,1.70
2023-04-13T22:24:56.401Z,1.63
2023-04-13T22:27:24.960Z,1.30
2023-04-13T22:29:57.146Z,1.35
2023-04-13T22:32:32.146Z,1.85
2023-04-13T22:35:02.372Z,1.63
2023-04-13T22:37:37.916Z,1.40
2023-04-13T22:40:08.450Z,1.00
2023-04-13T22:42:39.399Z,1.35
2023-04-13T22:45:13.781Z,1.42
2023-04-13T22:47:43.249Z,1.77
2023-04-13T22:50:13.407Z,1.08
2023-04-13T22:52:43.182Z,0.90
2023-04-13T22:55:11.509Z,1.27
2023-04-13T22:57:41.704Z,1.60
2023-04-13T23:00:17.203Z,0.80
2023-04-13T23:02:50.520Z,0.77
2023-04-13T23:05:25.318Z,1.42
2023-04-13T23:07:54.811Z,1.52
2023-04-13T23:10:28.891Z,3.20
2023-04-13T23:12:58.136Z,2.20
2023-04-13T23:15:27.893Z,2.03
2023-04-13T23:17:57.041Z,1.75
2023-04-13T23:20:25.993Z,1.83
2023-04-13T23:22:54.284Z,1.38
2023-04-13T23:35:16.551Z,2.75
2023-04-13T23:37:45.526Z,1.60
2023-04-13T23:40:15.400Z,1.95
2023-04-13T23:42:43.854Z,1.50
2023-04-13T23:45:12.389Z,1.67
2023-04-13T23:47:40.749Z,2.10
2023-04-13T23:52:39.719Z,4.13
2023-04-13T23:57:37.207Z,5.55
